x

Bodega Bay - 48nm Nnw Of San Francisco, Ca (46013) Wave Buoy

10:50pm - Fri 19th Dec 2014 All times are PST. -8 hours from GMT.

  • Sig Wave height 14.4ft
  • Peak Period 17s
  • Average Period 12s
  • Wind
    4mph, 9mph gusts
  • Sea Temp 60°f
  • Air Temp 58°f
  • Sea Pressure 1020.8mb
  • Bodega Bay - 48nm Nnw Of San Francisco, Ca
  • Bodega Bay - 48nm Nnw Of San Francisco, Ca

More Historic Weather Station data

Upgrade to MSW Pro to gain access to the past 30 days of data for over 8000 Wavebouys and Weather Stations around the globe.

Join Pro

Comparision Forecast

View Surf forecast
   
Fri 12/19 10:50pm 14.5ft 17s 12s 4 9 mph 1020.8mb 60f 58f
9:50pm 15ft 19s 12s 7 9 mph 1020.4mb 60f 58f
8:50pm 14ft 19s 11s 7 11 mph 1020mb 60f 58f
7:50pm 14ft 19s 11s 7 11 mph 1019.5mb 60f 58f
6:50pm 13ft 19s 11s 7 11 mph 1020mb 60f 58f
5:50pm 12.5ft 19s 11s 9 13 mph 1019.2mb 60f 58f
4:50pm 11ft 21s 10s 2 7 mph 1020.5mb 60f 58f
3:50pm 10ft 14s 10s 2 7 mph 1020.3mb 60f 58f
2:50pm 10.5ft 14s 10s 2 4 mph 1020.4mb 60f 58f
1:50pm 9ft 14s 9s 2 4 mph 1019.8mb 60f 58f
12:50pm 8ft 14s 8s 4 7 mph 1019.9mb 60f 58f
11:50am 8.5ft 11s 8s 4
mph
1020.2mb 60f 58f
10:50am 7.5ft 12s 7s 4 9 mph 1020.2mb 60f 58f
9:50am 8ft 12s 7s  -  2 mph 1020.3mb 60f 58f
8:50am 8ft 12s 7s 4 7 mph 1019.4mb 60f 57f
7:50am 7ft 12s 7s 9 11 mph 1019.2mb 60f 56f
6:50am 8ft 12s 7s 22 36 mph 1017.9mb 60f 59f
5:50am 8ft 12s 7s 16 18 mph 1017.5mb 60f 60f
4:50am 8ft 12s 7s 18 20 mph 1017.9mb 60f 59f
3:50am 7.5ft 14s 6s 22 27 mph 1018.2mb 60f 59f
2:50am 7ft 13s 6s 20 25 mph 1018.9mb 60f 58f
1:50am 7ft 13s 6s 22 25 mph 1018.8mb 60f 58f
12:50am 7ft 13s 6s 22 27 mph 1019.3mb 60f 57f
Thu 12/18 11:50pm 7ft 13s 7s 20 25 mph 1020mb 60f 57f
10:50pm 6.5ft 13s 6s 18 22 mph 1020.1mb 60f 57f
9:50pm 8ft 14s 8s 18 20 mph 1020mb 60f 59f
8:50pm 7ft 14s 7s 18 20 mph 1020mb 60f 59f
7:50pm 8ft 13s 8s 18 20 mph 1019.7mb 60f 59f
6:50pm 9ft 14s 8s 16 18 mph 1019.8mb 60f 59f
5:50pm 8.5ft 12s 8s 16 20 mph 1019.7mb 60f 59f
4:50pm 9ft 11s 8s 16 20 mph 1019.7mb 60f 59f
3:50pm 9ft 12s 8s 18 20 mph 1019.5mb 60f 59f
2:50pm 10ft 13s 9s 13 16 mph 1019.6mb 60f 59f
1:50pm 10ft 11s 9s 9 11 mph 1019.8mb 60f 59f
12:50pm 11ft 12s 9s 16 20 mph 1020.1mb 60f 57f
11:50am 9ft 14s 8s 16 18 mph 1020.8mb 59f 56f
10:50am 10ft 14s 9s 16 20 mph 1021.1mb 59f 55f
9:50am 11.5ft 14s 9s 13 18 mph 1021.1mb 59f 55f
8:50am 10ft 15s 9s 13 18 mph 1020.1mb 59f 55f
7:50am 9ft 14s 8s 16 20 mph 1019.2mb 59f 54f
6:50am 9ft 14s 8s 16 20 mph 1018.6mb 59f 54f
5:50am 9ft 14s 8s 18 22 mph 1017.8mb 60f 54f
4:50am 9ft 14s 8s 16 20 mph 1017.6mb 60f 54f
3:50am 9ft 14s 7s 16 18 mph 1017.4mb 60f 55f
2:50am 8.5ft 14s 7s 18 22 mph 1017.1mb 60f 55f
1:50am 9ft 15s 7s 20 27 mph 1016.6mb 59f 55f
12:50am 10ft 15s 7s 22 29 mph 1016.4mb 59f 55f
Wed 12/17 11:50pm 9ft 14s 7s 22 29 mph 1016.6mb 60f 54f
10:50pm 9.5ft 15s 7s 25 31 mph 1016.3mb 60f 55f
9:50pm 10.5ft 15s 7s 27 36 mph 1015.6mb 60f 55f
8:50pm 8.5ft 15s 7s 25 31 mph 1015.9mb 60f 54f
7:50pm 9ft 15s 7s 25 31 mph 1015.7mb 60f 54f
6:50pm 9ft 15s 8s 22 27 mph 1015.8mb 60f 54f
5:50pm 10ft 11s 8s 20 25 mph 1015.5mb 59f 53f
4:50pm 10ft 11s 8s 18 22 mph 1015.5mb 59f 54f
3:50pm 10.5ft 11s 8s 13 18 mph 1016mb 59f 55f
2:50pm 11.5ft 11s 8s 11 16 mph 1015.7mb 60f 56f
1:50pm 11ft 11s 8s 11 16 mph 1016mb 60f 56f
12:50pm 11.5ft 11s 8s 13 18 mph 1016.4mb 60f 57f
11:50am 11ft 12s 8s 18 25 mph 1017mb 60f 57f
10:50am 12.5ft 12s 8s 11 16 mph 1017.5mb 59f 58f
9:50am 14.5ft 12s 9s 13 20 mph 1017.7mb 59f 58f
8:50am 13ft 12s 9s 16 20 mph 1016.5mb 59f 58f
7:50am 13ft 11s 9s 11 16 mph 1015.8mb 59f 57f
6:50am 16ft 12s 9s 20 25 mph 1015.1mb 59f 56f
5:50am 15.5ft 13s 9s 16 20 mph 1014.4mb 59f 57f
4:50am 14ft 13s 8s 20 25 mph 1013.8mb 59f 56f
3:50am 14.5ft 12s 9s 20 27 mph 1013.8mb 59f 55f
2:50am 14.5ft 13s 8s 20 27 mph 1013.5mb 59f 57f
1:50am 15ft 13s 9s 25 29 mph 1013.3mb 59f 57f
12:50am 12ft 12s 8s 20 25 mph 1013.1mb 59f 56f
Tue 12/16 11:50pm 11ft 13s 7s 20 25 mph 1012.8mb 59f 57f
10:50pm 10.5ft 13s 7s 22 27 mph 1012.1mb 59f 58f
9:50pm 9ft 13s 7s 22 27 mph 1011.9mb 59f 57f
8:50pm 9.5ft 13s 8s 9 18 mph 1011.4mb 59f 56f
7:50pm 10ft 13s 8s 7 9 mph 1011.1mb 59f 55f
6:50pm 9.5ft 13s 7s 11 13 mph 1010.5mb 59f 54f
5:50pm 10ft 14s 7s 2 4 mph 1009.7mb 59f 54f
4:50pm 11ft 15s 7s 16 20 mph 1009.3mb 59f 52f
3:50pm 11ft 15s 7s 22 27 mph 1009.2mb 59f 53f
2:50pm 10.5ft 15s 7s 25 29 mph 1008.4mb 59f 56f
1:50pm 10ft 15s 7s 27 34 mph 1008.4mb 59f 57f
12:50pm 10ft 15s 7s 27 34 mph 1008.8mb 59f 59f
11:50am 12ft 15s 8s 25 31 mph 1010.3mb 59f 58f
10:50am 10.5ft 14s 8s 22 31 mph 1011.5mb 59f 57f
9:50am 11ft 14s 9s 20 25 mph 1012mb 59f 59f
8:50am 11.5ft 14s 9s 20 25 mph 1011.9mb 59f 59f